aviador You're here:

KLQK Decoded Metar

in
Report Time2017-12-18 08:55:00
UTC Time2017-12-18 09:06:04
Flight Rules ifr IFR
WindCalm
Visibility8047 m
Phenomena:Mist
Clouds:Broken 008 Hf
Overcast 011 Hf
Ceiling800 ft
Temp07°C
Dew Point07°C (100% RH)
AAT6.3°C
QNH1021 hPa
Raw Report
METAR KLQK 180855Z AUTO 00000KT 5SM BR BKN008 OVC011 07/07 A3015 RMK
AO2 T00700070=

Extra information for KLQK:More info

Social comments